Atqasuk, Alaska
Current Conditions -  °F | °C
As of 1:51 PM on Tuesday 21 Oct 2014 (Local Time) from PAWI Reporting Station
Light Snow Light Snow  
Wind Chill: -2°   Ceiling: 2000
Heat Index: 16°   Visibility: 1.2mi
Dew Point: 12°   Wind: 21mph
Humidity: 86%   Direction: 50°NE
Pressure: 29.99"   Gusts: NA
Location:  70.47°N, 157.4°W
Report Text: PAWI 212151Z AUTO 05018KT 1 1/4SM -SN BR OVC020 M09/M11 A2999 RMK AO2 P0000 TSNO
Loading
Personal Weather Stations






























Interactive Weather Map
Tropical Storm Tracking
New forecast layout! Learn more

10-Day Weather Forecast

Advertisements
Track Severe Weather on mobile